createdAt,value
2017-06-04T00:00:09.872Z,0
2017-06-04T00:01:10.602Z,0
2017-06-04T00:02:11.327Z,0
2017-06-04T00:03:12.057Z,0
2017-06-04T00:04:13.032Z,0
2017-06-04T00:05:13.760Z,0
2017-06-04T00:06:14.488Z,0
2017-06-04T00:07:15.216Z,0
2017-06-04T00:08:15.943Z,0
2017-06-04T00:09:16.921Z,0
2017-06-04T00:10:17.650Z,0
2017-06-04T00:11:18.376Z,0
2017-06-04T00:12:19.103Z,0
2017-06-04T00:13:19.830Z,0
2017-06-04T00:14:20.807Z,0
2017-06-04T00:15:21.534Z,0
2017-06-04T00:16:22.263Z,0
2017-06-04T00:17:22.987Z,0
2017-06-04T00:18:23.718Z,0
2017-06-04T00:19:24.744Z,0
2017-06-04T00:20:25.470Z,0
2017-06-04T00:21:26.199Z,0
2017-06-04T00:22:26.930Z,0
2017-06-04T00:23:27.655Z,0
2017-06-04T00:24:28.630Z,0
2017-06-04T00:25:29.357Z,0
2017-06-04T00:26:30.084Z,0
2017-06-04T00:27:30.836Z,0
2017-06-04T00:28:31.560Z,0
2017-06-04T00:29:32.541Z,0
2017-06-04T00:30:33.267Z,0
2017-06-04T00:31:33.995Z,0
2017-06-04T00:32:34.721Z,0
2017-06-04T00:33:35.447Z,0
2017-06-04T00:34:36.423Z,0
2017-06-04T00:35:37.148Z,0
2017-06-04T00:36:37.904Z,0
2017-06-04T00:37:38.627Z,0
2017-06-04T00:38:39.360Z,0
2017-06-04T00:39:40.331Z,0
2017-06-04T00:40:41.059Z,0
2017-06-04T00:41:41.786Z,0
2017-06-04T00:42:42.511Z,0
2017-06-04T00:43:43.240Z,0
2017-06-04T00:44:44.218Z,0
2017-06-04T00:45:44.946Z,0
2017-06-04T00:46:45.673Z,0
2017-06-04T00:47:46.398Z,0
2017-06-04T00:48:47.134Z,0
2017-06-04T00:49:48.098Z,0
2017-06-04T00:50:48.824Z,0
2017-06-04T00:51:49.551Z,0
2017-06-04T00:52:50.309Z,0
2017-06-04T00:53:51.030Z,0
2017-06-04T00:54:52.002Z,0
2017-06-04T00:55:52.727Z,0
2017-06-04T00:56:53.452Z,0
2017-06-04T00:57:54.178Z,0
2017-06-04T00:58:54.903Z,0
2017-06-04T00:59:55.881Z,0
2017-06-04T01:00:56.606Z,0
2017-06-04T01:01:57.333Z,0
2017-06-04T01:02:58.081Z,0
2017-06-04T01:03:58.807Z,0
2017-06-04T01:04:59.786Z,0
2017-06-04T01:06:00.511Z,0
2017-06-04T01:07:01.236Z,0
2017-06-04T01:08:01.960Z,0
2017-06-04T01:09:02.685Z,0
2017-06-04T01:10:03.664Z,0
2017-06-04T01:11:04.415Z,0
2017-06-04T01:12:05.137Z,0
2017-06-04T01:13:05.865Z,0
2017-06-04T01:14:06.615Z,0
2017-06-04T01:15:07.566Z,0
2017-06-04T01:16:08.292Z,0
2017-06-04T01:17:09.019Z,0
2017-06-04T01:18:09.744Z,0
2017-06-04T01:19:10.492Z,0
2017-06-04T01:20:11.468Z,0
2017-06-04T01:21:12.216Z,0
2017-06-04T01:22:12.940Z,0
2017-06-04T01:23:13.664Z,0
2017-06-04T01:24:14.414Z,0
2017-06-04T01:25:15.388Z,0
2017-06-04T01:26:16.113Z,0
2017-06-04T01:27:16.841Z,0
2017-06-04T01:28:17.566Z,0
2017-06-04T01:29:18.290Z,0
2017-06-04T01:30:19.300Z,0
2017-06-04T01:31:19.991Z,0
2017-06-04T01:32:20.720Z,0
2017-06-04T01:33:21.441Z,0
2017-06-04T01:34:22.171Z,0
2017-06-04T01:35:23.144Z,0
2017-06-04T01:36:23.869Z,0
2017-06-04T01:37:24.594Z,0
2017-06-04T01:38:25.320Z,0
2017-06-04T01:39:26.048Z,0
2017-06-04T01:40:27.023Z,0
2017-06-04T01:41:27.771Z,0
2017-06-04T01:42:28.494Z,0
2017-06-04T01:43:29.221Z,0
2017-06-04T01:44:29.944Z,0
2017-06-04T01:45:30.945Z,0
2017-06-04T01:46:31.670Z,0
2017-06-04T01:47:32.395Z,0
2017-06-04T01:48:33.146Z,0
2017-06-04T01:49:33.871Z,0
2017-06-04T01:50:34.846Z,0
2017-06-04T01:51:35.575Z,0
2017-06-04T01:52:36.298Z,0
2017-06-04T01:53:37.022Z,0
2017-06-04T01:54:37.748Z,0
2017-06-04T01:55:38.726Z,0
2017-06-04T01:56:39.453Z,0
2017-06-04T01:57:40.178Z,0
2017-06-04T01:58:40.905Z,0
2017-06-04T01:59:41.655Z,0
2017-06-04T02:00:42.635Z,0
2017-06-04T02:01:43.354Z,0
2017-06-04T02:02:44.079Z,0
2017-06-04T02:03:44.805Z,0
2017-06-04T02:04:45.555Z,0
2017-06-04T02:05:46.579Z,0
2017-06-04T02:06:47.305Z,0
2017-06-04T02:07:48.030Z,0
2017-06-04T02:08:48.779Z,0
2017-06-04T02:09:49.503Z,0
2017-06-04T02:10:50.480Z,0
2017-06-04T02:11:51.205Z,0
2017-06-04T02:12:51.929Z,0
2017-06-04T02:13:52.654Z,0
2017-06-04T02:14:53.403Z,0
2017-06-04T02:15:54.378Z,0
2017-06-04T02:16:55.102Z,0
2017-06-04T02:17:55.830Z,0
2017-06-04T02:18:56.554Z,0
2017-06-04T02:19:57.282Z,0
2017-06-04T02:20:58.306Z,0
2017-06-04T02:21:59.034Z,0
2017-06-04T02:22:59.759Z,0
2017-06-04T02:24:00.484Z,0
2017-06-04T02:25:01.209Z,0
2017-06-04T02:26:02.185Z,0
2017-06-04T02:27:02.909Z,0
2017-06-04T02:28:03.635Z,0
2017-06-04T02:29:04.360Z,0
2017-06-04T02:30:05.085Z,0
2017-06-04T02:31:06.061Z,0
2017-06-04T02:32:06.785Z,0
2017-06-04T02:33:07.511Z,0
2017-06-04T02:34:08.237Z,0
2017-06-04T02:35:08.987Z,0
2017-06-04T02:36:09.965Z,0
2017-06-04T02:37:10.688Z,0
2017-06-04T02:38:11.415Z,0
2017-06-04T02:39:12.140Z,0
2017-06-04T02:40:12.867Z,0
2017-06-04T02:41:13.840Z,0
2017-06-04T02:42:14.564Z,0
2017-06-04T02:43:15.292Z,0
2017-06-04T02:44:16.017Z,0
2017-06-04T02:45:16.744Z,0
2017-06-04T02:46:17.720Z,0
2017-06-04T02:47:18.446Z,0
2017-06-04T02:48:19.193Z,0
2017-06-04T02:49:19.922Z,0
2017-06-04T02:50:20.646Z,0
2017-06-04T02:51:21.622Z,0
2017-06-04T02:52:22.347Z,0
2017-06-04T02:53:23.074Z,0
2017-06-04T02:54:23.798Z,0
2017-06-04T02:55:24.523Z,0
2017-06-04T02:56:25.497Z,0
2017-06-04T02:57:26.225Z,0
2017-06-04T02:58:26.950Z,0
2017-06-04T02:59:27.699Z,0
2017-06-04T03:00:28.422Z,0
2017-06-04T03:01:29.400Z,0
2017-06-04T03:02:30.126Z,0
2017-06-04T03:03:30.878Z,0
2017-06-04T03:04:31.604Z,0
2017-06-04T03:05:32.333Z,0
2017-06-04T03:06:33.362Z,0
2017-06-04T03:07:34.109Z,0
2017-06-04T03:08:34.835Z,0
2017-06-04T03:09:35.560Z,0
2017-06-04T03:10:36.287Z,0
2017-06-04T03:11:37.266Z,0
2017-06-04T03:12:37.989Z,0
2017-06-04T03:13:38.738Z,0
2017-06-04T03:14:39.464Z,0
2017-06-04T03:15:40.191Z,0
2017-06-04T03:16:41.170Z,0
2017-06-04T03:17:41.895Z,0
2017-06-04T03:18:42.617Z,0
2017-06-04T03:19:43.347Z,0
2017-06-04T03:20:44.070Z,0
2017-06-04T03:21:45.100Z,0
2017-06-04T03:22:45.850Z,0
2017-06-04T03:23:46.600Z,0
2017-06-04T03:24:47.326Z,0
2017-06-04T03:25:48.054Z,0
2017-06-04T03:26:49.053Z,5
2017-06-04T03:27:49.779Z,5
2017-06-04T03:28:50.508Z,5
2017-06-04T03:29:51.236Z,5
2017-06-04T03:30:51.964Z,5
2017-06-04T03:31:52.992Z,5
2017-06-04T03:32:53.719Z,5
2017-06-04T03:33:54.445Z,5
2017-06-04T03:34:55.172Z,5
2017-06-04T03:35:55.900Z,5
2017-06-04T03:36:56.879Z,5
2017-06-04T03:37:57.607Z,5
2017-06-04T03:38:58.337Z,5
2017-06-04T03:39:59.062Z,5
2017-06-04T03:40:59.790Z,5
2017-06-04T03:42:00.772Z,5
2017-06-04T03:43:01.500Z,10
2017-06-04T03:44:02.253Z,10
2017-06-04T03:45:03.001Z,10
2017-06-04T03:46:03.732Z,10
2017-06-04T03:47:04.760Z,10
2017-06-04T03:48:05.488Z,10
2017-06-04T03:49:06.217Z,10
2017-06-04T03:50:06.947Z,10
2017-06-04T03:51:07.674Z,10
2017-06-04T03:52:08.674Z,15
2017-06-04T03:53:09.381Z,15
2017-06-04T03:54:10.111Z,15
2017-06-04T03:55:10.839Z,15
2017-06-04T03:56:11.570Z,15
2017-06-04T03:57:12.547Z,15
2017-06-04T03:58:13.278Z,15
2017-06-04T03:59:14.005Z,15
2017-06-04T04:00:14.734Z,15
2017-06-04T04:01:15.463Z,20
2017-06-04T04:02:16.463Z,20
2017-06-04T04:03:17.193Z,20
2017-06-04T04:04:17.921Z,20
2017-06-04T04:05:18.648Z,20
2017-06-04T04:06:19.374Z,20
2017-06-04T04:07:20.355Z,20
2017-06-04T04:08:21.085Z,20
2017-06-04T04:09:21.812Z,25
2017-06-04T04:10:22.541Z,25
2017-06-04T04:11:23.269Z,25
2017-06-04T04:12:24.250Z,25
2017-06-04T04:13:24.979Z,25
2017-06-04T04:14:25.704Z,30
2017-06-04T04:15:26.434Z,30
2017-06-04T04:16:27.162Z,30
2017-06-04T04:17:28.192Z,30
2017-06-04T04:18:28.920Z,35
2017-06-04T04:19:29.649Z,35
2017-06-04T04:20:30.380Z,40
2017-06-04T04:21:31.108Z,40
2017-06-04T04:22:32.088Z,40
2017-06-04T04:23:32.817Z,40
2017-06-04T04:24:33.549Z,40
2017-06-04T04:25:34.278Z,40
2017-06-04T04:26:35.008Z,45
2017-06-04T04:27:36.037Z,45
2017-06-04T04:28:36.768Z,45
2017-06-04T04:29:37.496Z,45
2017-06-04T04:30:38.229Z,45
2017-06-04T04:31:38.955Z,45
2017-06-04T04:32:39.933Z,50
2017-06-04T04:33:40.664Z,50
2017-06-04T04:34:41.394Z,50
2017-06-04T04:35:42.123Z,50
2017-06-04T04:36:42.857Z,50
2017-06-04T04:37:43.833Z,50
2017-06-04T04:38:44.564Z,55
2017-06-04T04:39:45.295Z,55
2017-06-04T04:40:46.024Z,55
2017-06-04T04:41:46.755Z,55
2017-06-04T04:42:47.738Z,55
2017-06-04T04:43:48.465Z,55
2017-06-04T04:44:49.196Z,55
2017-06-04T04:45:49.926Z,55
2017-06-04T04:46:50.657Z,55
2017-06-04T04:47:51.635Z,55
2017-06-04T04:48:52.363Z,55
2017-06-04T04:49:53.092Z,60
2017-06-04T04:50:53.823Z,60
2017-06-04T04:51:54.551Z,60
2017-06-04T04:52:55.586Z,60
2017-06-04T04:53:56.313Z,65
2017-06-04T04:54:57.039Z,65
2017-06-04T04:55:57.768Z,65
2017-06-04T04:56:58.523Z,65
2017-06-04T04:57:59.501Z,65
2017-06-04T04:59:00.233Z,65
2017-06-04T05:00:00.964Z,65
2017-06-04T05:01:01.728Z,70
2017-06-04T05:02:02.466Z,70
2017-06-04T05:03:03.445Z,70
2017-06-04T05:04:04.176Z,70
2017-06-04T05:05:04.905Z,75
2017-06-04T05:06:05.635Z,75
2017-06-04T05:07:06.365Z,80
2017-06-04T05:08:07.344Z,80
2017-06-04T05:09:08.073Z,85
2017-06-04T05:10:08.805Z,85
2017-06-04T05:11:09.568Z,90
2017-06-04T05:12:10.298Z,90
2017-06-04T05:13:11.279Z,95
2017-06-04T05:14:12.010Z,95
2017-06-04T05:15:12.743Z,100
2017-06-04T05:16:13.496Z,105
2017-06-04T05:17:14.226Z,105
2017-06-04T05:18:15.207Z,115
2017-06-04T05:19:15.956Z,110
2017-06-04T05:20:16.688Z,110
2017-06-04T05:21:17.418Z,115
2017-06-04T05:22:18.148Z,120
2017-06-04T05:23:19.137Z,120
2017-06-04T05:24:19.867Z,120
2017-06-04T05:25:20.598Z,125
2017-06-04T05:26:21.353Z,125
2017-06-04T05:27:22.086Z,125
2017-06-04T05:28:23.092Z,125
2017-06-04T05:29:23.821Z,130
2017-06-04T05:30:24.550Z,130
2017-06-04T05:31:25.284Z,130
2017-06-04T05:32:26.015Z,135
2017-06-04T05:33:26.997Z,135
2017-06-04T05:34:27.727Z,140
2017-06-04T05:35:28.459Z,140
2017-06-04T05:36:29.192Z,145
2017-06-04T05:37:29.924Z,145
2017-06-04T05:38:30.907Z,150
2017-06-04T05:39:31.635Z,155
2017-06-04T05:40:32.367Z,155
2017-06-04T05:41:33.100Z,160
2017-06-04T05:42:33.835Z,165
2017-06-04T05:43:34.815Z,165
2017-06-04T05:44:35.570Z,165
2017-06-04T05:45:36.303Z,165
2017-06-04T05:46:37.035Z,170
2017-06-04T05:47:37.769Z,170
2017-06-04T05:48:38.751Z,170
2017-06-04T05:49:39.482Z,170
2017-06-04T05:50:40.214Z,170
2017-06-04T05:51:40.947Z,170
2017-06-04T05:52:41.674Z,170
2017-06-04T05:53:42.657Z,170
2017-06-04T05:54:43.389Z,170
2017-06-04T05:55:44.121Z,170
2017-06-04T05:56:44.852Z,170
2017-06-04T05:57:45.583Z,170
2017-06-04T05:58:46.608Z,170
2017-06-04T05:59:47.341Z,165
2017-06-04T06:00:48.072Z,165
2017-06-04T06:01:48.806Z,160
2017-06-04T06:02:49.538Z,160
2017-06-04T06:03:50.520Z,160
2017-06-04T06:04:51.251Z,160
2017-06-04T06:05:51.981Z,160
2017-06-04T06:06:52.716Z,160
2017-06-04T06:07:53.445Z,160
2017-06-04T06:08:54.430Z,160
2017-06-04T06:09:55.187Z,160
2017-06-04T06:10:55.945Z,165
2017-06-04T06:11:56.679Z,165
2017-06-04T06:12:57.408Z,170
2017-06-04T06:13:58.389Z,175
2017-06-04T06:14:59.119Z,175
2017-06-04T06:15:59.851Z,170
2017-06-04T06:17:00.583Z,170
2017-06-04T06:18:01.315Z,175
2017-06-04T06:19:02.297Z,185
2017-06-04T06:20:03.027Z,190
2017-06-04T06:21:03.758Z,195
2017-06-04T06:22:04.489Z,200
2017-06-04T06:23:05.221Z,205
2017-06-04T06:24:06.225Z,200
2017-06-04T06:25:06.957Z,200
2017-06-04T06:26:07.689Z,210
2017-06-04T06:27:08.421Z,215
2017-06-04T06:28:09.178Z,220
2017-06-04T06:29:10.158Z,225
2017-06-04T06:30:10.889Z,235
2017-06-04T06:31:11.623Z,240
2017-06-04T06:32:12.378Z,245
2017-06-04T06:33:13.110Z,245
2017-06-04T06:34:14.093Z,250
2017-06-04T06:35:14.824Z,255
2017-06-04T06:36:15.556Z,255
2017-06-04T06:37:16.291Z,260
2017-06-04T06:38:17.024Z,260
2017-06-04T06:39:18.113Z,265
2017-06-04T06:40:18.870Z,270
2017-06-04T06:41:19.603Z,270
2017-06-04T06:42:20.338Z,270
2017-06-04T06:43:21.068Z,270
2017-06-04T06:44:22.047Z,275
2017-06-04T06:45:22.781Z,275
2017-06-04T06:46:23.514Z,275
2017-06-04T06:47:24.247Z,275
2017-06-04T06:48:24.978Z,275
2017-06-04T06:49:25.961Z,270
2017-06-04T06:50:26.693Z,270
2017-06-04T06:51:27.424Z,270
2017-06-04T06:52:28.155Z,270
2017-06-04T06:53:28.885Z,275
2017-06-04T06:54:29.891Z,280
2017-06-04T06:55:30.621Z,280
2017-06-04T06:56:31.352Z,285
2017-06-04T06:57:32.082Z,290
2017-06-04T06:58:32.816Z,290
2017-06-04T06:59:33.848Z,295
2017-06-04T07:00:34.582Z,290
2017-06-04T07:01:35.312Z,300
2017-06-04T07:02:36.042Z,300
2017-06-04T07:03:36.775Z,305
2017-06-04T07:04:37.757Z,310
2017-06-04T07:05:38.488Z,315
2017-06-04T07:06:39.223Z,320
2017-06-04T07:07:39.953Z,320
2017-06-04T07:08:40.686Z,320
2017-06-04T07:09:41.671Z,325
2017-06-04T07:10:42.404Z,340
2017-06-04T07:11:43.139Z,350
2017-06-04T07:12:43.874Z,350
2017-06-04T07:13:44.605Z,355
2017-06-04T07:14:45.588Z,355
2017-06-04T07:15:46.326Z,360
2017-06-04T07:16:47.059Z,360
2017-06-04T07:17:47.790Z,360
2017-06-04T07:18:48.526Z,360
2017-06-04T07:19:49.507Z,345
2017-06-04T07:20:50.239Z,345
2017-06-04T07:21:50.976Z,345
2017-06-04T07:22:51.709Z,350
2017-06-04T07:23:52.445Z,350
2017-06-04T07:24:53.429Z,355
2017-06-04T07:25:54.161Z,355
2017-06-04T07:26:54.898Z,365
2017-06-04T07:27:55.632Z,375
2017-06-04T07:28:56.365Z,380
2017-06-04T07:29:57.351Z,385
2017-06-04T07:30:58.086Z,385
2017-06-04T07:31:58.842Z,395
2017-06-04T07:32:59.576Z,400
2017-06-04T07:34:00.310Z,400
2017-06-04T07:35:01.294Z,400
2017-06-04T07:36:02.028Z,400
2017-06-04T07:37:02.785Z,430
2017-06-04T07:38:03.522Z,445
2017-06-04T07:39:04.257Z,440
2017-06-04T07:40:05.240Z,440
2017-06-04T07:41:05.977Z,430
2017-06-04T07:42:06.711Z,425
2017-06-04T07:43:07.445Z,405
2017-06-04T07:44:08.178Z,385
2017-06-04T07:45:09.164Z,385
2017-06-04T07:46:09.902Z,400
2017-06-04T07:47:10.636Z,665
2017-06-04T07:48:11.371Z,405
2017-06-04T07:49:12.111Z,715
2017-06-04T07:50:13.095Z,415
2017-06-04T07:51:13.833Z,525
2017-06-04T07:52:14.572Z,720
2017-06-04T07:53:15.307Z,895
2017-06-04T07:54:16.045Z,765
2017-06-04T07:55:17.032Z,830
2017-06-04T07:56:17.766Z,960
2017-06-04T07:57:18.504Z,1040
2017-06-04T07:58:19.245Z,970
2017-06-04T07:59:19.983Z,755
2017-06-04T08:00:20.996Z,805
2017-06-04T08:01:21.734Z,665
2017-06-04T08:02:22.476Z,725
2017-06-04T08:03:23.212Z,750
2017-06-04T08:04:23.953Z,900
2017-06-04T08:05:24.943Z,945
2017-06-04T08:06:25.710Z,390
2017-06-04T08:07:26.451Z,1160
2017-06-04T08:08:27.197Z,1210
2017-06-04T08:09:27.939Z,1185
2017-06-04T08:10:28.930Z,1250
2017-06-04T08:11:29.674Z,1020
2017-06-04T08:12:30.422Z,1115
2017-06-04T08:13:31.162Z,980
2017-06-04T08:14:31.907Z,895
2017-06-04T08:15:32.904Z,355
2017-06-04T08:16:33.644Z,1145
2017-06-04T08:17:34.410Z,410
2017-06-04T08:18:35.177Z,1325
2017-06-04T08:19:35.923Z,1205
2017-06-04T08:20:36.941Z,1260
2017-06-04T08:21:37.683Z,1290
2017-06-04T08:22:38.427Z,1310
2017-06-04T08:23:39.170Z,1095
2017-06-04T08:24:39.913Z,1470
2017-06-04T08:25:40.902Z,1460
2017-06-04T08:26:41.644Z,660
2017-06-04T08:27:42.383Z,340
2017-06-04T08:28:43.125Z,1435
2017-06-04T08:29:43.865Z,1660
2017-06-04T08:30:44.856Z,1730
2017-06-04T08:31:45.600Z,1685
2017-06-04T08:32:46.342Z,1595
2017-06-04T08:33:47.083Z,1600
2017-06-04T08:34:47.826Z,1555
2017-06-04T08:35:48.816Z,630
2017-06-04T08:36:49.560Z,1635
2017-06-04T08:37:50.302Z,1765
2017-06-04T08:38:51.049Z,710
2017-06-04T08:39:51.789Z,1765
2017-06-04T08:40:52.780Z,1720
2017-06-04T08:41:53.523Z,1760
2017-06-04T08:42:54.268Z,1815
2017-06-04T08:43:55.036Z,1940
2017-06-04T08:44:55.781Z,1845
2017-06-04T08:45:56.770Z,1800
2017-06-04T08:46:57.513Z,1800
2017-06-04T08:47:58.257Z,650
2017-06-04T08:48:58.999Z,530
2017-06-04T08:49:59.742Z,1755
2017-06-04T08:51:00.733Z,1485
2017-06-04T08:52:01.478Z,1765
2017-06-04T08:53:02.227Z,1810
2017-06-04T08:54:02.965Z,1560
2017-06-04T08:55:03.709Z,370
2017-06-04T08:56:04.701Z,285
2017-06-04T08:57:05.441Z,265
2017-06-04T08:58:06.181Z,275
2017-06-04T08:59:06.922Z,315
2017-06-04T09:00:07.661Z,685
2017-06-04T09:01:08.654Z,1865
2017-06-04T09:02:09.415Z,1910
2017-06-04T09:03:10.158Z,1875
2017-06-04T09:04:10.902Z,1925
2017-06-04T09:05:11.643Z,1880
2017-06-04T09:06:12.636Z,1790
2017-06-04T09:07:13.403Z,1395
2017-06-04T09:08:14.142Z,590
2017-06-04T09:09:14.883Z,355
2017-06-04T09:10:15.625Z,330
2017-06-04T09:11:16.614Z,655
2017-06-04T09:12:17.358Z,1925
2017-06-04T09:13:18.097Z,1935
2017-06-04T09:14:18.841Z,1900
2017-06-04T09:15:19.585Z,1710
2017-06-04T09:16:20.578Z,335
2017-06-04T09:17:21.343Z,310
2017-06-04T09:18:22.081Z,310
2017-06-04T09:19:22.823Z,345
2017-06-04T09:20:23.566Z,2000
2017-06-04T09:21:24.555Z,1980
2017-06-04T09:22:25.318Z,1965
2017-06-04T09:23:26.058Z,1850
2017-06-04T09:24:26.802Z,560
2017-06-04T09:25:27.549Z,1490
2017-06-04T09:26:28.535Z,405
2017-06-04T09:27:29.275Z,375
2017-06-04T09:28:30.014Z,600
2017-06-04T09:29:30.757Z,2120
2017-06-04T09:30:31.501Z,1595
2017-06-04T09:31:32.495Z,1205
2017-06-04T09:32:33.260Z,2005
2017-06-04T09:33:34.001Z,1895
2017-06-04T09:34:34.745Z,2040
2017-06-04T09:35:35.485Z,765
2017-06-04T09:36:36.478Z,2095
2017-06-04T09:37:37.219Z,2000
2017-06-04T09:38:37.963Z,2005
2017-06-04T09:39:38.707Z,2160
2017-06-04T09:40:39.452Z,2080
2017-06-04T09:41:40.447Z,2070
2017-06-04T09:42:41.191Z,1755
2017-06-04T09:43:41.937Z,2180
2017-06-04T09:44:42.680Z,1080
2017-06-04T09:45:43.423Z,325
2017-06-04T09:46:44.417Z,345
2017-06-04T09:47:45.158Z,425
2017-06-04T09:48:45.921Z,2180
2017-06-04T09:49:46.665Z,1115
2017-06-04T09:50:47.405Z,485
2017-06-04T09:51:48.399Z,420
2017-06-04T09:52:49.166Z,375
2017-06-04T09:53:49.909Z,385
2017-06-04T09:54:50.649Z,485
2017-06-04T09:55:51.389Z,2355
2017-06-04T09:56:52.434Z,2270
2017-06-04T09:57:53.176Z,740
2017-06-04T09:58:53.941Z,540
2017-06-04T09:59:54.680Z,2135
2017-06-04T10:00:55.425Z,2230
2017-06-04T10:01:56.416Z,1365
2017-06-04T10:02:57.158Z,1955
2017-06-04T10:03:57.902Z,515
2017-06-04T10:04:58.649Z,445
2017-06-04T10:05:59.383Z,420
2017-06-04T10:07:00.376Z,550
2017-06-04T10:08:01.114Z,510
2017-06-04T10:09:01.855Z,1285
2017-06-04T10:10:02.597Z,2345
2017-06-04T10:11:03.338Z,2160
2017-06-04T10:12:04.331Z,530
2017-06-04T10:13:05.071Z,435
2017-06-04T10:14:05.810Z,390
2017-06-04T10:15:06.550Z,410
2017-06-04T10:16:07.291Z,435
2017-06-04T10:17:08.280Z,395
2017-06-04T10:18:09.018Z,320
2017-06-04T10:19:09.757Z,295
2017-06-04T10:20:10.495Z,290
2017-06-04T10:21:11.233Z,315
2017-06-04T10:22:12.223Z,375
2017-06-04T10:23:12.962Z,2390
2017-06-04T10:24:13.703Z,2410
2017-06-04T10:25:14.444Z,2495
2017-06-04T10:26:15.186Z,2485
2017-06-04T10:27:16.180Z,2510
2017-06-04T10:28:16.921Z,2540
2017-06-04T10:29:17.664Z,2500
2017-06-04T10:30:18.412Z,2315
2017-06-04T10:31:19.154Z,2210
2017-06-04T10:32:20.198Z,2250
2017-06-04T10:33:20.943Z,2410
2017-06-04T10:34:21.687Z,2605
2017-06-04T10:35:22.429Z,2510
2017-06-04T10:36:23.175Z,2435
2017-06-04T10:37:24.173Z,2505
2017-06-04T10:38:24.921Z,2530
2017-06-04T10:39:25.671Z,2520
2017-06-04T10:40:26.445Z,2455
2017-06-04T10:41:27.202Z,2485
2017-06-04T10:42:28.209Z,2550
2017-06-04T10:43:28.989Z,2445
2017-06-04T10:44:29.746Z,2165
2017-06-04T10:45:30.503Z,2140
2017-06-04T10:46:31.255Z,2300
2017-06-04T10:47:32.254Z,480
2017-06-04T10:48:33.028Z,1620
2017-06-04T10:49:33.785Z,2615
2017-06-04T10:50:34.537Z,2590
2017-06-04T10:51:35.291Z,745
2017-06-04T10:52:36.287Z,850
2017-06-04T10:53:37.043Z,450
2017-06-04T10:54:37.818Z,505
2017-06-04T10:55:38.564Z,2615
2017-06-04T10:56:39.306Z,900
2017-06-04T10:57:40.305Z,570
2017-06-04T10:58:41.044Z,515
2017-06-04T10:59:41.806Z,640
2017-06-04T11:00:42.561Z,2760
2017-06-04T11:01:43.292Z,570
2017-06-04T11:02:44.285Z,1870
2017-06-04T11:03:45.028Z,2575
2017-06-04T11:04:45.794Z,2735
2017-06-04T11:05:46.538Z,2785
2017-06-04T11:06:47.284Z,2665
2017-06-04T11:07:48.281Z,2240
2017-06-04T11:08:49.027Z,1910
2017-06-04T11:09:49.768Z,535
2017-06-04T11:10:50.513Z,555
2017-06-04T11:11:51.260Z,2575
2017-06-04T11:12:52.251Z,1235
2017-06-04T11:13:52.998Z,510
2017-06-04T11:14:53.740Z,405
2017-06-04T11:15:54.502Z,395
2017-06-04T11:16:55.245Z,545
2017-06-04T11:17:56.288Z,585
2017-06-04T11:18:57.051Z,625
2017-06-04T11:19:57.793Z,750
2017-06-04T11:20:58.533Z,745
2017-06-04T11:21:59.273Z,590
2017-06-04T11:23:00.268Z,430
2017-06-04T11:24:01.008Z,380
2017-06-04T11:25:01.748Z,355
2017-06-04T11:26:02.486Z,360
2017-06-04T11:27:03.224Z,400
2017-06-04T11:28:04.215Z,2175
2017-06-04T11:29:04.953Z,385
2017-06-04T11:30:05.695Z,325
2017-06-04T11:31:06.436Z,300
2017-06-04T11:32:07.173Z,295
2017-06-04T11:33:08.165Z,295
2017-06-04T11:34:08.896Z,305
2017-06-04T11:35:09.636Z,270
2017-06-04T11:36:10.372Z,235
2017-06-04T11:37:11.108Z,225
2017-06-04T11:38:12.100Z,210
2017-06-04T11:39:12.860Z,195
2017-06-04T11:40:13.599Z,175
2017-06-04T11:41:14.334Z,150
2017-06-04T11:42:15.071Z,140
2017-06-04T11:43:16.056Z,140
2017-06-04T11:44:16.792Z,140
2017-06-04T11:45:17.542Z,140
2017-06-04T11:46:18.270Z,140
2017-06-04T11:47:19.005Z,135
2017-06-04T11:48:19.994Z,125
2017-06-04T11:49:20.730Z,115
2017-06-04T11:50:21.492Z,105
2017-06-04T11:51:22.228Z,95
2017-06-04T11:52:22.967Z,90
2017-06-04T11:53:23.958Z,85
2017-06-04T11:54:24.690Z,80
2017-06-04T11:55:25.427Z,75
2017-06-04T11:56:26.165Z,70
2017-06-04T11:57:26.902Z,75
2017-06-04T11:58:27.887Z,80
2017-06-04T11:59:28.627Z,85
2017-06-04T12:00:29.364Z,95
2017-06-04T12:01:30.102Z,115
2017-06-04T12:02:30.843Z,140
2017-06-04T12:03:31.830Z,170
2017-06-04T12:04:32.568Z,215
2017-06-04T12:05:33.327Z,260
2017-06-04T12:06:34.068Z,305
2017-06-04T12:07:34.804Z,330
2017-06-04T12:08:35.793Z,350
2017-06-04T12:09:36.525Z,370
2017-06-04T12:10:37.265Z,410
2017-06-04T12:11:38.007Z,470
2017-06-04T12:12:38.744Z,630
2017-06-04T12:13:39.735Z,2440
2017-06-04T12:14:40.474Z,1805
2017-06-04T12:15:41.220Z,2550
2017-06-04T12:16:41.965Z,2710
2017-06-04T12:17:42.705Z,2680
2017-06-04T12:18:43.695Z,2730
2017-06-04T12:19:44.439Z,2625
2017-06-04T12:20:45.180Z,2660
2017-06-04T12:21:45.925Z,2745
2017-06-04T12:22:46.666Z,2710
2017-06-04T12:23:47.660Z,2550
2017-06-04T12:24:48.403Z,2615
2017-06-04T12:25:49.144Z,2600
2017-06-04T12:26:49.888Z,600
2017-06-04T12:27:50.631Z,625
2017-06-04T12:28:51.626Z,520
2017-06-04T12:29:52.364Z,500
2017-06-04T12:30:53.106Z,465
2017-06-04T12:31:53.848Z,450
2017-06-04T12:32:54.586Z,460
2017-06-04T12:33:55.577Z,480
2017-06-04T12:34:56.317Z,635
2017-06-04T12:35:57.054Z,655
2017-06-04T12:36:57.797Z,600
2017-06-04T12:37:58.538Z,655
2017-06-04T12:38:59.528Z,575
2017-06-04T12:40:00.269Z,595
2017-06-04T12:41:01.009Z,2440
2017-06-04T12:42:01.748Z,2095
2017-06-04T12:43:02.488Z,1085
2017-06-04T12:44:03.480Z,850
2017-06-04T12:45:04.222Z,550
2017-06-04T12:46:04.961Z,490
2017-06-04T12:47:05.704Z,715
2017-06-04T12:48:06.468Z,2155
2017-06-04T12:49:07.458Z,880
2017-06-04T12:50:08.196Z,855
2017-06-04T12:51:08.941Z,1285
2017-06-04T12:52:09.682Z,2735
2017-06-04T12:53:10.424Z,2790
2017-06-04T12:54:11.437Z,2475
2017-06-04T12:55:12.179Z,975
2017-06-04T12:56:12.930Z,965
2017-06-04T12:57:13.668Z,2615
2017-06-04T12:58:14.409Z,780
2017-06-04T12:59:15.402Z,605
2017-06-04T13:00:16.143Z,580
2017-06-04T13:01:16.882Z,630
2017-06-04T13:02:17.623Z,2110
2017-06-04T13:03:18.365Z,600
2017-06-04T13:04:19.353Z,480
2017-06-04T13:05:20.093Z,405
2017-06-04T13:06:20.832Z,340
2017-06-04T13:07:21.570Z,275
2017-06-04T13:08:22.309Z,230
2017-06-04T13:09:23.296Z,205
2017-06-04T13:10:24.036Z,180
2017-06-04T13:11:24.772Z,160
2017-06-04T13:12:25.514Z,145
2017-06-04T13:13:26.251Z,145
2017-06-04T13:14:27.240Z,130
2017-06-04T13:15:28.001Z,120
2017-06-04T13:16:28.737Z,110
2017-06-04T13:17:29.475Z,105
2017-06-04T13:18:30.212Z,100
2017-06-04T13:19:31.199Z,100
2017-06-04T13:20:31.935Z,95
2017-06-04T13:21:32.667Z,95
2017-06-04T13:22:33.404Z,90
2017-06-04T13:23:34.143Z,95
2017-06-04T13:24:35.125Z,95
2017-06-04T13:25:35.863Z,100
2017-06-04T13:26:36.603Z,100
2017-06-04T13:27:37.342Z,100
2017-06-04T13:28:38.080Z,100
2017-06-04T13:29:39.073Z,95
2017-06-04T13:30:39.832Z,85
2017-06-04T13:31:40.569Z,80
2017-06-04T13:32:41.307Z,75
2017-06-04T13:33:42.047Z,75
2017-06-04T13:34:43.031Z,80
2017-06-04T13:35:43.763Z,95
2017-06-04T13:36:44.500Z,110
2017-06-04T13:37:45.237Z,130
2017-06-04T13:38:45.973Z,155
2017-06-04T13:39:46.965Z,200
2017-06-04T13:40:47.697Z,340
2017-06-04T13:41:48.457Z,390
2017-06-04T13:42:49.193Z,490
2017-06-04T13:43:49.932Z,490
2017-06-04T13:44:50.924Z,460
2017-06-04T13:45:51.663Z,425
2017-06-04T13:46:52.399Z,460
2017-06-04T13:47:53.137Z,500
2017-06-04T13:48:53.875Z,520
2017-06-04T13:49:54.865Z,520
2017-06-04T13:50:55.603Z,525
2017-06-04T13:51:56.343Z,510
2017-06-04T13:52:57.082Z,490
2017-06-04T13:53:57.819Z,490
2017-06-04T13:54:58.805Z,525
2017-06-04T13:55:59.543Z,585
2017-06-04T13:57:00.284Z,665
2017-06-04T13:58:01.026Z,1040
2017-06-04T13:59:01.772Z,1185
2017-06-04T14:00:02.763Z,1480
2017-06-04T14:01:03.518Z,835
2017-06-04T14:02:04.250Z,1135
2017-06-04T14:03:04.995Z,1130
2017-06-04T14:04:05.732Z,595
2017-06-04T14:05:06.725Z,520
2017-06-04T14:06:07.465Z,500
2017-06-04T14:07:08.212Z,510
2017-06-04T14:08:08.949Z,570
2017-06-04T14:09:09.686Z,600
2017-06-04T14:10:10.678Z,760
2017-06-04T14:11:11.415Z,955